Pagrindinis puslapis
METAR-TAF:

METAR-TAF

Oro uostai :

Phitsanulok, Tailandas

platuma: 16-46-23N, ilguma: 100-16-56E, Aukštis: 47 m

Dabartinis oras

Ataskaita buvo paskelbta 49 minutes, ne 10:00 UTC
Vėjas 3 kt iš Rytų, svyruoja nuo Šiaurės ir Rytų/Pietryčių
Temperatūra 29°C
Drėgmė 45%
Slėgis 1012 hPa
Matomumas: 7000 m
Mažai debesys ne aukštis 3000 ft
Su prošvaistėmis ne aukštis 6000 ft

METAR: VTPP 171000Z 08003KT 360V120 7000 FEW030 BKN060 29/16 Q1012 NOSIG

Laikas: 17:49 (10:49 UTC)

Prognozė

Ataskaita buvo paskelbta 5 valandos ir 49 minutes, ne 05:00 UTC
Prognozė galioja nuo 17 metu 06 UTC su 18 metu 06 UTC
Vėjas 5 kt iš Pietų
Matomumas: 7000 m

TAF: VTPP 170500Z 1706/1806 18005KT 7000 NSC

Orai ataskaitas ir orų prognozės (METAR, TAF).

turimą stotys yra geltonos ir raudonos taškus žemėlapyje.

Perkelti pele per norėdami pamatyti stoties vardą.

Tada spustelėkite, norėdami matyti oro stebėjimo ir prognozės.

Norėdami pakeisti žemėlapį: spustelėkite ant žalios mygtukų su juodo kryžiaus žemyn,; žalią mygtuką su brūkšneliu, jei norite nutolinti; arba žalių rodyklių gretimoms žemėlapius.


METAR-TAF: